Oostburg, Wisconsin
Current Conditions -  °F | °C
As of 4:20 PM on Monday 24 Nov 2014 (Local Time) from KSBM Reporting Station
Light Snow Light Snow  
Wind Chill: 20°   Ceiling: 700
Heat Index: 32°   Visibility: 0.75mi
Dew Point: 30°   Wind: 21mph
Humidity: 92%   Direction: 250°WSW
Pressure: 29.32"   Gusts: NA
Location:  43.62°N, 87.79°W
Report Text: KSBM 242220Z AUTO 25018KT 3/4SM -SN BR VV007 00/M01 A2932 RMK AO2 P0001 T00001011
Loading
Personal Weather Stations






























Interactive Weather Map New forecast layout! Learn more

10-Day Weather Forecast

Advertisements
Track Severe Weather on mobile